createdAt,value
2019-03-03T00:02:14.881Z,5.30
2019-03-03T00:04:45.289Z,5.30
2019-03-03T00:07:15.625Z,5.30
2019-03-03T00:09:45.985Z,5.40
2019-03-03T00:12:16.400Z,5.40
2019-03-03T00:14:46.770Z,5.50
2019-03-03T00:17:17.173Z,5.50
2019-03-03T00:19:47.541Z,5.50
2019-03-03T00:22:17.935Z,5.50
2019-03-03T00:24:48.341Z,5.60
2019-03-03T00:27:18.693Z,5.60
2019-03-03T00:29:49.138Z,5.60
2019-03-03T00:32:19.509Z,5.70
2019-03-03T00:34:49.880Z,5.70
2019-03-03T00:37:25.722Z,5.70
2019-03-03T00:40:27.553Z,5.80
2019-03-03T00:43:03.862Z,5.80
2019-03-03T00:48:52.521Z,5.90
2019-03-03T00:51:40.324Z,5.90
2019-03-03T00:54:33.752Z,6.00
2019-03-03T00:57:10.851Z,6.00
2019-03-03T01:00:09.533Z,6.10
2019-03-03T01:02:56.365Z,6.10
2019-03-03T01:05:44.650Z,6.10
2019-03-03T01:08:29.573Z,6.10
2019-03-03T01:11:30.765Z,6.20
2019-03-03T01:14:13.036Z,6.20
2019-03-03T01:16:54.997Z,6.20
2019-03-03T01:19:31.390Z,6.20
2019-03-03T01:22:10.605Z,6.30
2019-03-03T01:24:58.189Z,6.30
2019-03-03T01:27:29.066Z,6.30
2019-03-03T01:29:59.590Z,6.30
2019-03-03T01:32:29.952Z,6.30
2019-03-03T01:35:00.345Z,6.40
2019-03-03T01:37:30.690Z,6.40
2019-03-03T01:40:01.059Z,6.50
2019-03-03T01:42:31.473Z,6.50
2019-03-03T01:45:01.913Z,6.50
2019-03-03T01:47:33.358Z,6.50
2019-03-03T01:50:03.769Z,6.50
2019-03-03T01:52:34.101Z,6.60
2019-03-03T01:55:05.133Z,6.50
2019-03-03T01:57:35.490Z,6.60
2019-03-03T02:00:20.742Z,6.60
2019-03-03T02:02:51.323Z,6.60
2019-03-03T02:05:21.789Z,6.60
2019-03-03T02:07:52.146Z,6.60
2019-03-03T02:10:23.730Z,6.70
2019-03-03T02:12:54.145Z,6.70
2019-03-03T02:15:25.146Z,6.70
2019-03-03T02:17:55.487Z,6.70
2019-03-03T02:20:26.010Z,6.80
2019-03-03T02:22:56.392Z,6.80
2019-03-03T02:25:26.739Z,6.80
2019-03-03T02:27:57.146Z,6.80
2019-03-03T02:30:27.602Z,6.90
2019-03-03T02:32:57.963Z,6.90
2019-03-03T02:35:28.363Z,6.90
2019-03-03T02:37:58.719Z,6.90
2019-03-03T02:40:29.170Z,6.90
2019-03-03T02:42:59.524Z,7.00
2019-03-03T02:45:30.027Z,7.00
2019-03-03T02:48:00.406Z,7.00
2019-03-03T02:50:30.867Z,7.00
2019-03-03T02:53:01.338Z,7.00
2019-03-03T02:55:31.721Z,7.00
2019-03-03T02:58:02.075Z,7.00
2019-03-03T03:00:32.468Z,7.10
2019-03-03T03:03:03.349Z,7.10
2019-03-03T03:05:51.517Z,7.10
2019-03-03T03:08:25.611Z,7.10
2019-03-03T03:11:02.720Z,7.10
2019-03-03T03:13:50.626Z,7.20
2019-03-03T03:16:27.336Z,7.20
2019-03-03T03:19:15.422Z,7.20
2019-03-03T03:21:50.305Z,7.20
2019-03-03T03:24:37.291Z,7.20
2019-03-03T03:27:29.598Z,7.20
2019-03-03T03:30:18.892Z,7.20
2019-03-03T03:33:11.013Z,7.20
2019-03-03T03:35:52.741Z,7.20
2019-03-03T03:38:36.958Z,7.20
2019-03-03T03:41:29.034Z,7.20
2019-03-03T03:44:21.393Z,7.20
2019-03-03T03:47:19.719Z,7.30
2019-03-03T03:49:58.797Z,7.30
2019-03-03T03:52:39.046Z,7.30
2019-03-03T03:55:35.495Z,7.30
2019-03-03T03:58:19.736Z,7.30
2019-03-03T04:01:10.657Z,7.30
2019-03-03T04:04:14.978Z,7.20
2019-03-03T04:07:04.312Z,7.30
2019-03-03T04:09:52.738Z,7.20
2019-03-03T04:12:54.494Z,7.20
2019-03-03T04:15:43.240Z,7.20
2019-03-03T04:18:35.371Z,7.20
2019-03-03T04:21:36.817Z,7.20
2019-03-03T04:24:26.176Z,7.10
2019-03-03T04:27:24.485Z,7.10
2019-03-03T04:29:59.319Z,7.10
2019-03-03T04:32:41.479Z,7.10
2019-03-03T04:35:31.178Z,7.20
2019-03-03T04:38:19.087Z,7.20
2019-03-03T04:41:14.414Z,7.20
2019-03-03T04:43:55.017Z,7.20
2019-03-03T04:46:44.333Z,7.30
2019-03-03T04:49:32.501Z,7.30
2019-03-03T04:52:21.849Z,7.40
2019-03-03T04:55:26.470Z,7.40
2019-03-03T04:58:24.589Z,7.50
2019-03-03T05:01:13.877Z,7.50
2019-03-03T05:03:54.441Z,7.60
2019-03-03T05:06:55.574Z,7.60
2019-03-03T05:09:57.305Z,7.60
2019-03-03T05:12:45.210Z,7.70
2019-03-03T05:15:32.606Z,7.70
2019-03-03T05:18:25.078Z,7.80
2019-03-03T05:20:55.456Z,7.80
2019-03-03T05:23:25.814Z,7.80
2019-03-03T05:25:56.632Z,7.80
2019-03-03T05:28:26.969Z,7.90
2019-03-03T05:30:57.357Z,7.90
2019-03-03T05:33:27.735Z,7.90
2019-03-03T05:35:58.162Z,7.90
2019-03-03T05:38:28.552Z,8.00
2019-03-03T05:40:58.907Z,8.00
2019-03-03T05:43:30.196Z,8.00
2019-03-03T05:46:00.783Z,8.00
2019-03-03T05:48:31.122Z,8.00
2019-03-03T05:51:01.498Z,8.00
2019-03-03T05:53:31.896Z,8.10
2019-03-03T05:56:02.358Z,8.10
2019-03-03T05:58:32.720Z,8.10
2019-03-03T06:01:03.358Z,8.10
2019-03-03T06:03:33.713Z,8.10
2019-03-03T06:06:04.201Z,8.10
2019-03-03T06:08:34.553Z,8.20
2019-03-03T06:11:04.961Z,8.20
2019-03-03T06:13:35.343Z,8.20
2019-03-03T06:16:05.700Z,8.30
2019-03-03T06:18:36.074Z,8.30
2019-03-03T06:21:06.413Z,8.30
2019-03-03T06:23:36.822Z,8.40
2019-03-03T06:26:07.178Z,8.40
2019-03-03T06:28:49.129Z,8.40
2019-03-03T06:31:19.493Z,8.40
2019-03-03T06:33:50.468Z,8.40
2019-03-03T06:36:20.838Z,8.50
2019-03-03T06:38:51.361Z,8.50
2019-03-03T06:41:21.714Z,8.50
2019-03-03T06:43:52.213Z,8.50
2019-03-03T06:46:22.573Z,8.60
2019-03-03T06:48:52.915Z,8.60
2019-03-03T06:51:23.299Z,8.60
2019-03-03T06:53:53.658Z,8.70
2019-03-03T06:56:24.094Z,8.70
2019-03-03T06:58:54.448Z,8.80
2019-03-03T07:01:24.866Z,8.80
2019-03-03T07:03:55.257Z,8.80
2019-03-03T07:06:25.641Z,8.80
2019-03-03T07:08:56.007Z,8.90
2019-03-03T07:11:26.375Z,8.90
2019-03-03T07:13:56.749Z,9.00
2019-03-03T07:16:27.148Z,9.00
2019-03-03T07:18:57.522Z,9.00
2019-03-03T07:21:27.870Z,9.10
2019-03-03T07:23:58.245Z,9.10
2019-03-03T07:26:28.589Z,9.20
2019-03-03T07:28:58.953Z,9.20
2019-03-03T07:31:29.290Z,9.30
2019-03-03T07:34:02.069Z,9.30
2019-03-03T07:36:33.084Z,9.40
2019-03-03T07:39:04.562Z,9.50
2019-03-03T07:41:35.776Z,9.50
2019-03-03T07:44:06.645Z,9.60
2019-03-03T07:46:36.991Z,9.60
2019-03-03T07:49:08.026Z,9.70
2019-03-03T07:51:40.340Z,9.70
2019-03-03T07:54:10.682Z,9.70
2019-03-03T07:56:41.072Z,9.80
2019-03-03T07:59:11.399Z,9.80
2019-03-03T08:01:41.798Z,9.90
2019-03-03T08:04:12.141Z,9.90
2019-03-03T08:06:42.550Z,10.00
2019-03-03T08:09:13.046Z,10.00
2019-03-03T08:11:43.881Z,10.00
2019-03-03T08:14:14.205Z,10.10
2019-03-03T08:16:44.649Z,10.10
2019-03-03T08:19:16.636Z,10.20
2019-03-03T08:21:47.098Z,10.20
2019-03-03T08:24:17.446Z,10.20
2019-03-03T08:26:47.821Z,10.30
2019-03-03T08:29:18.210Z,10.40
2019-03-03T08:31:48.552Z,10.50
2019-03-03T08:34:18.981Z,10.60
2019-03-03T08:36:49.477Z,10.60
2019-03-03T08:39:19.941Z,10.70
2019-03-03T08:41:54.918Z,10.70
2019-03-03T08:44:49.762Z,10.70
2019-03-03T08:47:35.149Z,10.70
2019-03-03T08:50:19.857Z,10.70
2019-03-03T08:53:02.815Z,10.80
2019-03-03T08:55:55.146Z,10.80
2019-03-03T08:58:45.747Z,10.80
2019-03-03T09:01:50.145Z,10.90
2019-03-03T09:04:31.578Z,10.90
2019-03-03T09:07:17.194Z,11.00
2019-03-03T09:10:09.212Z,11.00
2019-03-03T09:13:05.133Z,11.10
2019-03-03T09:15:49.145Z,11.10
2019-03-03T09:18:45.513Z,11.10
2019-03-03T09:21:34.795Z,11.10
2019-03-03T09:24:30.370Z,11.20
2019-03-03T09:27:15.039Z,11.10
2019-03-03T09:30:08.377Z,11.20
2019-03-03T09:33:03.102Z,11.20
2019-03-03T09:36:01.529Z,11.30
2019-03-03T09:38:49.522Z,11.40
2019-03-03T09:41:30.653Z,11.40
2019-03-03T09:44:11.173Z,11.40
2019-03-03T09:46:58.830Z,11.50
2019-03-03T09:49:42.325Z,11.50
2019-03-03T09:52:37.277Z,11.50
2019-03-03T09:55:30.290Z,11.50
2019-03-03T09:58:25.609Z,11.40
2019-03-03T10:01:10.986Z,11.40
2019-03-03T10:04:03.100Z,11.40
2019-03-03T10:06:46.141Z,11.50
2019-03-03T10:09:22.750Z,11.50
2019-03-03T10:11:58.167Z,11.50
2019-03-03T10:14:47.086Z,11.60
2019-03-03T10:17:54.858Z,11.60
2019-03-03T10:20:42.881Z,11.60
2019-03-03T10:23:30.641Z,11.60
2019-03-03T10:26:21.741Z,11.60
2019-03-03T10:29:11.443Z,11.60
2019-03-03T10:32:03.812Z,11.70
2019-03-03T10:34:53.150Z,11.70
2019-03-03T10:37:37.693Z,11.70
2019-03-03T10:40:27.390Z,11.80
2019-03-03T10:43:16.713Z,11.70
2019-03-03T10:46:10.024Z,11.60
2019-03-03T10:48:47.820Z,11.70
2019-03-03T10:51:34.999Z,11.70
2019-03-03T10:54:11.497Z,11.70
2019-03-03T10:57:06.565Z,11.70
2019-03-03T10:59:55.509Z,11.60
2019-03-03T11:02:42.064Z,11.60
2019-03-03T11:05:34.630Z,11.60
2019-03-03T11:08:36.073Z,11.60
2019-03-03T11:11:27.815Z,11.70
2019-03-03T11:14:36.348Z,11.70
2019-03-03T11:17:35.826Z,11.70
2019-03-03T11:20:24.306Z,11.80
2019-03-03T11:23:12.541Z,11.80
2019-03-03T11:26:13.918Z,11.80
2019-03-03T11:29:06.190Z,11.80
2019-03-03T11:32:04.377Z,11.80
2019-03-03T11:34:52.917Z,11.80
2019-03-03T11:37:42.210Z,11.80
2019-03-03T11:40:23.711Z,11.80
2019-03-03T11:43:03.738Z,11.80
2019-03-03T11:46:04.194Z,11.80
2019-03-03T11:49:07.089Z,11.80
2019-03-03T11:51:45.081Z,11.80
2019-03-03T11:54:26.033Z,11.80
2019-03-03T11:57:07.449Z,11.70
2019-03-03T11:59:51.370Z,11.70
2019-03-03T12:02:36.686Z,11.70
2019-03-03T12:05:17.839Z,11.70
2019-03-03T12:07:57.836Z,11.60
2019-03-03T12:10:56.533Z,11.60
2019-03-03T12:13:32.664Z,11.50
2019-03-03T12:16:24.787Z,11.60
2019-03-03T12:19:25.964Z,11.50
2019-03-03T12:22:03.295Z,11.50
2019-03-03T12:24:52.609Z,11.50
2019-03-03T12:27:40.416Z,11.50
2019-03-03T12:30:28.795Z,11.50
2019-03-03T12:33:17.058Z,11.50
2019-03-03T12:36:15.469Z,11.50
2019-03-03T12:38:57.190Z,11.60
2019-03-03T12:41:46.517Z,11.70
2019-03-03T12:44:22.616Z,11.70
2019-03-03T12:47:02.704Z,11.70
2019-03-03T12:50:01.268Z,11.80
2019-03-03T12:52:49.288Z,11.70
2019-03-03T12:55:40.811Z,11.80
2019-03-03T12:58:28.673Z,11.80
2019-03-03T13:01:17.845Z,11.90
2019-03-03T13:04:13.217Z,12.00
2019-03-03T13:07:05.536Z,12.00
2019-03-03T13:10:01.218Z,11.90
2019-03-03T13:12:54.485Z,11.90
2019-03-03T13:15:38.222Z,11.80
2019-03-03T13:18:19.474Z,11.80
2019-03-03T13:21:10.422Z,11.90
2019-03-03T13:23:59.134Z,11.90
2019-03-03T13:26:45.513Z,11.90
2019-03-03T13:29:46.825Z,11.80
2019-03-03T13:32:51.353Z,11.80
2019-03-03T13:35:43.409Z,11.80
2019-03-03T13:38:31.555Z,11.80
2019-03-03T13:41:12.257Z,11.70
2019-03-03T13:43:43.067Z,11.70
2019-03-03T13:46:13.724Z,11.80
2019-03-03T13:48:44.096Z,11.80
2019-03-03T13:51:14.849Z,11.80
2019-03-03T13:53:45.618Z,11.80
2019-03-03T13:56:15.999Z,11.90
2019-03-03T13:58:46.572Z,11.90
2019-03-03T14:01:16.933Z,11.90
2019-03-03T14:03:47.453Z,11.90
2019-03-03T14:06:17.829Z,11.90
2019-03-03T14:08:48.218Z,11.90
2019-03-03T14:11:27.653Z,11.90
2019-03-03T14:13:58.229Z,11.90
2019-03-03T14:16:28.678Z,11.90
2019-03-03T14:18:59.159Z,11.90
2019-03-03T14:21:29.534Z,12.00
2019-03-03T14:24:00.231Z,12.00
2019-03-03T14:26:30.621Z,12.00
2019-03-03T14:29:01.385Z,12.00
2019-03-03T14:31:31.765Z,12.00
2019-03-03T14:34:02.285Z,12.00
2019-03-03T14:36:32.637Z,12.00
2019-03-03T14:39:04.709Z,12.00
2019-03-03T14:41:36.253Z,12.00
2019-03-03T14:44:07.046Z,12.00
2019-03-03T14:46:37.418Z,12.00
2019-03-03T14:49:07.845Z,12.00
2019-03-03T14:51:38.530Z,12.00
2019-03-03T14:54:09.009Z,12.00
2019-03-03T14:56:39.739Z,12.00
2019-03-03T14:59:10.240Z,11.90
2019-03-03T15:01:40.590Z,11.90
2019-03-03T15:04:11.125Z,11.80
2019-03-03T15:06:41.857Z,11.70
2019-03-03T15:09:31.394Z,11.60
2019-03-03T15:12:02.131Z,11.50
2019-03-03T15:14:32.694Z,11.40
2019-03-03T15:17:03.054Z,11.40
2019-03-03T15:19:33.537Z,11.20
2019-03-03T15:22:03.981Z,11.20
2019-03-03T15:24:35.290Z,11.20
2019-03-03T15:27:05.662Z,11.20
2019-03-03T15:29:36.119Z,11.20
2019-03-03T15:32:06.821Z,11.10
2019-03-03T15:34:37.306Z,10.90
2019-03-03T15:37:12.234Z,10.90
2019-03-03T15:39:42.609Z,10.80
2019-03-03T15:42:13.042Z,10.70
2019-03-03T15:44:43.477Z,10.80
2019-03-03T15:47:13.909Z,10.70
2019-03-03T15:49:44.302Z,10.70
2019-03-03T15:52:14.653Z,10.60
2019-03-03T15:54:45.446Z,10.60
2019-03-03T15:57:15.795Z,10.60
2019-03-03T15:59:46.165Z,10.60
2019-03-03T16:02:16.521Z,10.60
2019-03-03T16:04:47.355Z,10.70
2019-03-03T16:07:17.686Z,10.70
2019-03-03T16:09:48.098Z,10.60
2019-03-03T16:12:18.541Z,10.60
2019-03-03T16:14:48.962Z,10.60
2019-03-03T16:17:19.310Z,10.60
2019-03-03T16:19:49.688Z,10.50
2019-03-03T16:22:20.114Z,10.50
2019-03-03T16:24:50.526Z,10.50
2019-03-03T16:27:20.885Z,10.50
2019-03-03T16:29:51.341Z,10.50
2019-03-03T16:32:21.740Z,10.50
2019-03-03T16:34:52.142Z,10.50
2019-03-03T16:37:22.474Z,10.50
2019-03-03T16:39:52.884Z,10.50
2019-03-03T16:42:23.234Z,10.40
2019-03-03T16:44:53.605Z,10.40
2019-03-03T16:47:24.042Z,10.40
2019-03-03T16:49:54.413Z,10.40
2019-03-03T16:52:24.794Z,10.40
2019-03-03T16:54:55.703Z,10.40
2019-03-03T16:57:26.433Z,10.40
2019-03-03T16:59:56.839Z,10.40
2019-03-03T17:02:28.257Z,10.40
2019-03-03T17:04:58.656Z,10.30
2019-03-03T17:07:29.010Z,10.30
2019-03-03T17:10:01.521Z,10.40
2019-03-03T17:12:33.178Z,10.30
2019-03-03T17:15:03.597Z,10.30
2019-03-03T17:17:35.022Z,10.30
2019-03-03T17:20:06.551Z,10.30
2019-03-03T17:22:36.961Z,10.30
2019-03-03T17:25:10.246Z,10.30
2019-03-03T17:27:40.609Z,10.30
2019-03-03T17:30:13.909Z,10.30
2019-03-03T17:32:44.674Z,10.30
2019-03-03T17:35:15.138Z,10.30
2019-03-03T17:37:45.491Z,10.30
2019-03-03T17:40:17.691Z,10.30
2019-03-03T17:42:48.233Z,10.30
2019-03-03T17:45:20.004Z,10.30
2019-03-03T17:47:50.458Z,10.30
2019-03-03T17:50:21.660Z,10.30
2019-03-03T17:52:52.134Z,10.30
2019-03-03T17:55:22.586Z,10.30
2019-03-03T17:57:53.141Z,10.20
2019-03-03T18:00:25.852Z,10.20
2019-03-03T18:02:56.646Z,10.30
2019-03-03T18:05:27.124Z,10.30
2019-03-03T18:07:57.528Z,10.30
2019-03-03T18:10:27.970Z,10.30
2019-03-03T18:12:58.650Z,10.20
2019-03-03T18:15:29.454Z,10.20
2019-03-03T18:17:59.806Z,10.20
2019-03-03T18:20:30.541Z,10.20
2019-03-03T18:23:00.930Z,10.20
2019-03-03T18:25:31.316Z,10.20
2019-03-03T18:28:01.674Z,10.20
2019-03-03T18:30:32.062Z,10.20
2019-03-03T18:33:02.600Z,10.30
2019-03-03T18:35:32.976Z,10.30
2019-03-03T18:38:03.327Z,10.20
2019-03-03T18:40:33.725Z,10.30
2019-03-03T18:43:04.265Z,10.30
2019-03-03T18:45:34.759Z,10.30
2019-03-03T18:48:05.247Z,10.30
2019-03-03T18:50:35.654Z,10.20
2019-03-03T18:53:07.134Z,10.30
2019-03-03T18:55:37.475Z,10.30
2019-03-03T18:58:08.309Z,10.30
2019-03-03T19:00:38.661Z,10.30
2019-03-03T19:03:09.186Z,10.20
2019-03-03T19:05:39.607Z,10.30
2019-03-03T19:08:10.082Z,10.30
2019-03-03T19:10:40.481Z,10.30
2019-03-03T19:13:11.037Z,10.30
2019-03-03T19:15:41.750Z,10.30
2019-03-03T19:18:13.202Z,10.30
2019-03-03T19:20:43.558Z,10.30
2019-03-03T19:23:13.938Z,10.30
2019-03-03T19:25:44.281Z,10.30
2019-03-03T19:28:14.667Z,10.40
2019-03-03T19:30:45.033Z,10.40
2019-03-03T19:33:22.298Z,10.40
2019-03-03T19:35:53.737Z,10.30
2019-03-03T19:38:24.326Z,10.40
2019-03-03T19:40:54.708Z,10.40
2019-03-03T19:43:25.195Z,10.40
2019-03-03T19:45:55.645Z,10.40
2019-03-03T19:48:26.172Z,10.40
2019-03-03T19:50:56.542Z,10.40
2019-03-03T19:53:27.912Z,10.40
2019-03-03T19:55:58.192Z,10.40
2019-03-03T19:58:28.593Z,10.40
2019-03-03T20:00:58.936Z,10.40
2019-03-03T20:03:29.645Z,10.40
2019-03-03T20:06:00.021Z,10.40
2019-03-03T20:08:30.391Z,10.40
2019-03-03T20:11:00.782Z,10.50
2019-03-03T20:13:31.329Z,10.40
2019-03-03T20:16:01.741Z,10.50
2019-03-03T20:18:32.377Z,10.50
2019-03-03T20:21:02.778Z,10.50
2019-03-03T20:23:33.197Z,10.50
2019-03-03T20:26:03.660Z,10.50
2019-03-03T20:28:35.081Z,10.50
2019-03-03T20:31:05.734Z,10.50
2019-03-03T20:33:36.269Z,10.50
2019-03-03T20:36:06.737Z,10.50
2019-03-03T20:38:38.581Z,10.50
2019-03-03T20:41:09.101Z,10.50
2019-03-03T20:43:39.485Z,10.60
2019-03-03T20:46:09.963Z,10.60
2019-03-03T20:48:40.304Z,10.50
2019-03-03T20:51:10.691Z,10.50
2019-03-03T20:53:41.142Z,10.60
2019-03-03T20:56:11.634Z,10.60
2019-03-03T20:58:41.973Z,10.60
2019-03-03T21:01:12.349Z,10.60
2019-03-03T21:03:42.689Z,10.60
2019-03-03T21:06:13.070Z,10.60
2019-03-03T21:08:43.413Z,10.60
2019-03-03T21:11:13.790Z,10.60
2019-03-03T21:13:44.458Z,10.60
2019-03-03T21:16:14.866Z,10.60
2019-03-03T21:18:45.226Z,10.60
2019-03-03T21:21:15.606Z,10.60
2019-03-03T21:23:45.979Z,10.60
2019-03-03T21:26:16.386Z,10.60
2019-03-03T21:28:46.757Z,10.60
2019-03-03T21:31:17.273Z,10.60
2019-03-03T21:33:47.677Z,10.70
2019-03-03T21:36:18.132Z,10.70
2019-03-03T21:38:48.501Z,10.70
2019-03-03T21:41:19.086Z,10.70
2019-03-03T21:43:49.454Z,10.70
2019-03-03T21:46:19.847Z,10.70
2019-03-03T21:48:50.253Z,10.70
2019-03-03T21:51:20.648Z,10.70
2019-03-03T21:53:51.007Z,10.70
2019-03-03T21:56:21.362Z,10.60
2019-03-03T21:58:51.746Z,10.70
2019-03-03T22:01:22.080Z,10.70
2019-03-03T22:03:52.486Z,10.70
2019-03-03T22:06:22.902Z,10.70
2019-03-03T22:08:53.269Z,10.70
2019-03-03T22:11:23.609Z,10.70
2019-03-03T22:13:54.005Z,10.70
2019-03-03T22:16:24.374Z,10.70
2019-03-03T22:18:54.797Z,10.70
2019-03-03T22:21:25.227Z,10.60
2019-03-03T22:23:55.611Z,10.60
2019-03-03T22:26:25.993Z,10.60
2019-03-03T22:28:56.341Z,10.60
2019-03-03T22:31:26.819Z,10.60
2019-03-03T22:33:57.266Z,10.50
2019-03-03T22:36:27.654Z,10.60
2019-03-03T22:38:58.029Z,10.60
2019-03-03T22:41:28.357Z,10.60
2019-03-03T22:43:58.728Z,10.50
2019-03-03T22:46:29.071Z,10.50
2019-03-03T22:48:59.498Z,10.50
2019-03-03T22:51:29.846Z,10.50
2019-03-03T22:54:00.246Z,10.40
2019-03-03T22:56:30.615Z,10.40
2019-03-03T22:59:01.001Z,10.40
2019-03-03T23:01:39.397Z,10.50
2019-03-03T23:04:18.237Z,10.50
2019-03-03T23:07:11.434Z,10.50
2019-03-03T23:10:17.581Z,10.50
2019-03-03T23:13:25.706Z,10.50
2019-03-03T23:16:31.856Z,10.50
2019-03-03T23:19:38.209Z,10.50
2019-03-03T23:22:41.729Z,10.50
2019-03-03T23:25:29.871Z,10.50
2019-03-03T23:28:00.238Z,10.50
2019-03-03T23:30:30.589Z,10.50
2019-03-03T23:33:00.958Z,10.50
2019-03-03T23:35:31.337Z,10.50
2019-03-03T23:38:03.317Z,10.50
2019-03-03T23:40:33.662Z,10.50
2019-03-03T23:43:04.245Z,10.50
2019-03-03T23:45:34.658Z,10.50
2019-03-03T23:48:05.117Z,10.50
2019-03-03T23:50:35.466Z,10.50
2019-03-03T23:53:05.861Z,10.50
2019-03-03T23:55:36.221Z,10.50
2019-03-03T23:58:06.582Z,10.50
